ADDS METAR Data INFO
IDs: Format: Raw Decoded Include TAF

Data at: 1532 UTC 25 Feb 2018

KCIN 251515Z AUTO 25018KT CLR M04/M08 A2988 RMK AO2
KCIN 251455Z AUTO 24016G22KT 10SM CLR M04/M08 A2988 RMK AO2
KCIN 251435Z AUTO 25017KT 10SM CLR M05/M08 A2988 RMK AO2
KCIN 251415Z AUTO 25013KT 10SM CLR M05/M08 A2986 RMK AO2
KCIN 251355Z AUTO 24011KT 10SM CLR M06/M09 A2985 RMK AO2
KCIN 251335Z AUTO 23012KT 10SM CLR M06/M09 A2985 RMK AO2
KCIN 251315Z AUTO 23013KT 10SM CLR M07/M10 A2984 RMK AO2
KCIN 251255Z AUTO 22013KT 10SM CLR M07/M10 A2983 RMK AO2
KCIN 251235Z AUTO 24012KT 10SM CLR M07/M10 A2983 RMK AO2
KCIN 251215Z AUTO 26010KT 10SM CLR M06/M10 A2981 RMK AO2
KCIN 251155Z AUTO 12.45833312KT 10SM CLR M06/M10 A2981 RMK AO2
KCIN 251135Z AUTO 26012KT 10SM CLR M06/M10 A2981 RMK AO2
KCIN 251115Z AUTO 25012KT 10SM CLR M06/M10 A2981 RMK AO2
KCIN 251055Z AUTO 25013KT 10SM CLR M07/M10 A2980 RMK AO2
KCIN 251035Z AUTO 26014KT 10SM CLR M06/M10 A2979 RMK AO2
KCIN 251015Z AUTO 26015G21KT 10SM CLR M06/M10 A2979 RMK AO2
KCIN 250955Z AUTO 26016KT 10SM CLR M06/M09 A2978 RMK AO2
KCIN 250935Z AUTO 26016KT 10SM CLR M06/M09 A2978 RMK AO2
KCIN 250915Z AUTO 26015KT 10SM CLR M06/M09 A2977 RMK AO2
KCIN 250855Z AUTO 27016G22KT 10SM CLR M06/M09 A2977 RMK AO2
KCIN 250835Z AUTO 27021KT 10SM CLR M06/M08 A2978 RMK AO2
KCIN 250815Z AUTO 26021KT 10SM CLR M06/M08 A2977 RMK AO2
KCIN 250755Z AUTO 27017G22KT 10SM CLR M06/M08 A2977 RMK AO2
KCIN 250735Z AUTO 27020G26KT 10SM CLR M05/M07 A2976 RMK AO2
KCIN 250715Z AUTO 26020KT 10SM CLR M06/M07 A2976 RMK AO2
KCIN 250655Z AUTO 28019G24KT 10SM CLR M05/M07 A2975 RMK AO2
KCIN 250635Z AUTO 28023G29KT 10SM CLR M05/M07 A2974 RMK AO2
KCIN 250615Z AUTO 28021G28KT 10SM FEW019 FEW032 M04/M06 A2972 RMK AO2
KCIN 250555Z AUTO 28025G33KT 10SM BKN019 M03/M05 A2971 RMK AO2
KCIN 250535Z AUTO 28022G27KT OVC019 M02/M04 A2971 RMK AO2
KCIN 250515Z AUTO 27019G28KT 10SM BKN021 OVC025 M02/M04 A2971 RMK AO2
KCIN 250455Z AUTO 25017KT 10SM OVC023 M02/M03 A2970 RMK AO2
KCIN 250435Z AUTO 25015KT 10SM OVC023 M02/M03 A2969 RMK AO2
KCIN 250415Z AUTO 25014G20KT 10SM OVC023 M02/M04 A2969 RMK AO2
KCIN 250355Z AUTO 25015KT 10SM OVC026 M03/M04 A2969 RMK AO2
KCIN 250335Z AUTO 25016KT 10SM SCT028 OVC034 M03/M04 A2968 RMK AO2
KCIN 250315Z AUTO 25016KT 10SM OVC037 M03/M04 A2968 RMK AO2
KCIN 250255Z AUTO 25015G20KT 10SM BKN041 OVC047 M03/M04 A2968 RMK AO2
KCIN 250235Z AUTO 26012KT 10SM BKN047 OVC065 M03/M04 A2967 RMK AO2
KCIN 250215Z AUTO 26012G19KT 10SM SCT014 OVC065 M03/M04 A2967 RMK AO2
KCIN 250155Z AUTO 26015G20KT 10SM OVC013 M03/M04 A2968 RMK AO2
KCIN 250135Z AUTO 26013G19KT 10SM BKN014 OVC060 M02/M04 A2967 RMK AO2
KCIN 250115Z AUTO 26012KT 10SM SCT060 OVC070 M02/M03 A2967 RMK AO2
KCIN 250055Z AUTO 26012KT 10SM FEW011 OVC065 M02/M03 A2966 RMK AO2
KCIN 250035Z AUTO 27014KT 10SM SCT012 BKN041 OVC065 M02/M03 A2966 RMK AO2
KCIN 250015Z AUTO 27012KT 9SM BKN010 OVC015 M02/M03 A2966 RMK AO2
KCIN 242355Z AUTO 26008KT 9SM SCT009 BKN013 OVC055 M02/M02 A2966 RMK AO2 P0001
KCIN 242335Z AUTO 25005KT 4SM -UP FEW007 SCT017 OVC055 M02/M02 A2964 RMK AO2
KCIN 242315Z AUTO 26004KT 5SM BR SCT006 BKN017 M02/M02 A2964 RMK AO2
KCIN 242255Z AUTO 32003KT 3SM -UP BKN005 BKN019 BKN048 M02/M02 A2964 RMK AO2
KCIN 242235Z AUTO 34005KT 5SM BR BKN005 BKN025 BKN048 M02/M02 A2964 RMK AO2
KCIN 242215Z AUTO 33008KT 2SM BR FEW006 SCT025 SCT047 M02/M02 A2964 RMK AO2
KCIN 242155Z AUTO 32011KT 2 1/2SM -SN SCT005 M01/M01 A2965 RMK AO2
KCIN 242135Z AUTO 28006KT 3/4SM -SN BKN004 BKN008 M01/M01 A2967 RMK AO2
KCIN 242115Z AUTO 28007KT 1SM -SN BKN004 OVC008 M01/M01 A2969 RMK AO2
KCIN 242055Z AUTO 24005KT 3/4SM BR OVC005 M01/M01 A2968 RMK AO2
KCIN 242035Z AUTO 23006KT 3/4SM BR OVC004 M01/M01 A2969 RMK AO2
KCIN 242015Z AUTO 23005KT 3/4SM BR OVC004 M01/M01 A2971 RMK AO2
KCIN 241955Z AUTO 20004KT 1/2SM BR BKN004 OVC008 M01/M01 A2972 RMK AO2 P0001
KCIN 241935Z AUTO 16007KT 1 1/2SM BR BKN005 OVC009 M01/M01 A2973 RMK AO2
KCIN 241915Z AUTO 13007KT 3/4SM BR OVC004 M01/M01 A2974 RMK AO2
KCIN 241855Z AUTO 13007KT 1/2SM BR OVC004 M01/M01 A2976 RMK AO2 P0001
KCIN 241835Z AUTO 13008KT 1/2SM BR OVC005 M01/M01 A2979 RMK AO2
KCIN 241815Z AUTO 12009KT 1SM BR BKN004 OVC007 M01/M01 A2980 RMK AO2
KCIN 241755Z AUTO 12006KT 1SM BR SCT004 M01/M02 A2982 RMK AO2 P0002
KCIN 241735Z AUTO 12008KT 3/4SM BR BKN004 M02/M02 A2984 RMK AO2
KCIN 241715Z AUTO 14008KT 3/4SM BR OVC004 M02/M02 A2986 RMK AO2
KCIN 241655Z AUTO 11008KT 1/2SM BR BKN004 M03/M03 A2986 RMK AO2
KCIN 241635Z AUTO 11009KT 1/2SM BR BKN005 M03/M03 A2987 RMK AO2
KCIN 241615Z AUTO 12009KT 3/4SM BR OVC005 M03/M03 A2990 RMK AO2
KCIN 241555Z AUTO 12009KT 1 3/4SM BR SCT007 M03/M04 A2992 RMK AO2
KCIN 241535Z AUTO 12008KT 2SM BR FEW007 M04/M04 A2993 RMK AO2
KCIN 241515Z AUTO 09005KT 2 1/2SM BR SCT009 M06/M06 A2995 RMK AO2
KCIN 241455Z AUTO 09003KT 3SM -SN FEW009 SCT036 BKN044 M06/M06 A2998 RMK AO2
KCIN 241435Z AUTO 13005KT 2 1/2SM -SN FEW006 FEW036 BKN046 M06/M07 A2999 RMK AO2
KCIN 241415Z AUTO 08008KT 4SM BR FEW006 OVC048 M07/M07 A2998 RMK AO2
KCIN 241355Z AUTO 08009KT 3SM BR SCT049 BKN070 M07/M07 A2998 RMK AO2
KCIN 241335Z AUTO 06010KT 3SM BR SCT005 OVC070 M08/M08 A2998 RMK AO2
KCIN 241315Z AUTO 06007KT 3SM BR BKN005 OVC070 M07/M08 A3000 RMK AO2
KCIN 241255Z AUTO 07010KT 4SM BR BKN004 OVC075 M07/M07 A3000 RMK AO2
KCIN 241235Z AUTO 06009KT 5SM BR OVC005 M07/M08 A3003 RMK AO2
KCIN 241215Z AUTO 04005KT 5SM BR OVC005 M07/M08 A3006 RMK AO2
KCIN 241155Z AUTO 06007KT 4SM BR OVC003 M08/M08 A3005 RMK AO2
KCIN 241135Z AUTO 05006KT 2SM BR OVC003 M08/M09 A3006 RMK AO2
KCIN 241115Z AUTO 04009KT 1 1/4SM BR OVC002 M08/M08 A3005 RMK AO2
KCIN 241055Z AUTO 06010KT 1/4SM FZFG OVC002 M08/M08 A3005 RMK AO2
KCIN 241035Z AUTO 8.54166709KT 1/4SM FZFG OVC002 M07/M08 A3008 RMK AO2
KCIN 241015Z AUTO 05007KT 2SM BR OVC003 M07/M07 A3009 RMK AO2
KCIN 240955Z AUTO 03007KT 1 1/4SM BR OVC003 M07/M07 A3010 RMK AO2
KCIN 240935Z AUTO 04004KT 1SM BR OVC002 M07/M07 A3013 RMK AO2
KCIN 240915Z AUTO 05003KT 1/2SM FZFG OVC002 M07/M07 A3015 RMK AO2
KCIN 240855Z AUTO 09003KT 3SM BR OVC003 M07/M07 A3017 RMK AO2
KCIN 240835Z AUTO 09003KT 4SM BR OVC004 M07/M07 A3018 RMK AO2
KCIN 240815Z AUTO 00000KT 5SM BR OVC005 M07/M07 A3019 RMK AO2
KCIN 240755Z AUTO 00000KT 5SM BR OVC005 M07/M07 A3020 RMK AO2
KCIN 240735Z AUTO 10004KT 8SM BKN007 BKN013 M07/M07 A3021 RMK AO2
KCIN 240715Z AUTO 09005KT 8SM SCT006 BKN012 M06/M07 A3022 RMK AO2
KCIN 240655Z AUTO 07005KT 8SM BKN005 OVC011 M05/M06 A3023 RMK AO2
KCIN 240635Z AUTO 09007KT 8SM OVC005 M05/M06 A3024 RMK AO2
KCIN 240615Z AUTO 08007KT 8SM OVC005 M05/M06 A3025 RMK AO2
KCIN 240555Z AUTO 07006KT 8SM OVC005 M05/M06 A3026 RMK AO2
KCIN 240535Z AUTO 07007KT 8SM OVC005 M05/M06 A3027 RMK AO2
KCIN 240515Z AUTO 08008KT 9SM OVC005 M06/M06 A3027 RMK AO2
KCIN 240455Z AUTO 06008KT 9SM OVC005 M06/M06 A3027 RMK AO2
KCIN 240435Z AUTO 05010KT 9SM OVC005 M06/M06 A3028 RMK AO2
KCIN 240415Z AUTO 05009KT 8SM OVC004 M06/M06 A3028 RMK AO2
KCIN 240355Z AUTO 05008KT 7SM OVC004 M06/M06 A3029 RMK AO2
KCIN 240335Z AUTO 04008KT 6SM BR OVC004 M06/M07 A3030 RMK AO2